Time;durP1;ratioP1;P1;durP2;ratioP2;P2;SDS_P1;SDS_P2;PMS_P1;PMS_P2;Temp;Humidity;BMP_temperature;BMP_pressure;BME280_temperature;BME280_humidity;BME280_pressure;Samples;Min_cycle;Max_cycle;Signal;HPM_P1;HPM_P2
2022/09/05 00:00:01;;;;;;;8.15;6.18;;;;;;;18.70;100.00;95280.13;5063749;28;20202;-84
2022/09/05 00:02:39;;;;;;;9.30;6.73;;;;;;;18.52;100.00;95275.25;5064826;28;20204;-84
2022/09/05 00:05:24;;;;;;;9.18;7.65;;;;;;;18.33;100.00;95271.38;5066639;28;20671;-84
2022/09/05 00:08:01;;;;;;;8.70;7.47;;;;;;;18.20;100.00;95275.22;5066581;28;20259;-83
2022/09/05 00:10:37;;;;;;;9.77;8.45;;;;;;;18.18;100.00;95271.25;5064138;28;20221;-84
2022/09/05 00:13:14;;;;;;;10.55;8.75;;;;;;;18.14;100.00;95273.59;5066848;28;20192;-83
2022/09/05 00:15:54;;;;;;;11.70;8.53;;;;;;;18.15;100.00;95273.31;5065076;28;20672;-83
2022/09/05 00:18:36;;;;;;;13.53;8.50;;;;;;;18.30;100.00;95272.66;5065152;28;20202;-83
2022/09/05 00:21:17;;;;;;;14.07;8.95;;;;;;;18.33;100.00;95272.16;5060669;28;20434;-83
2022/09/05 00:23:56;;;;;;;10.73;9.40;;;;;;;18.33;100.00;95280.06;5063862;28;20205;-83
2022/09/05 00:26:37;;;;;;;10.93;9.27;;;;;;;18.32;100.00;95277.69;5065437;28;20691;-82
2022/09/05 00:29:18;;;;;;;9.02;7.97;;;;;;;18.68;100.00;95282.22;5063281;28;20221;-82
2022/09/05 00:31:59;;;;;;;12.32;8.32;;;;;;;18.85;100.00;95285.50;5065368;28;20205;-83
2022/09/05 00:34:58;;;;;;;9.80;8.40;;;;;;;18.74;100.00;95278.56;5063431;28;20208;-82
2022/09/05 00:37:33;;;;;;;13.57;9.20;;;;;;;18.80;100.00;95277.56;5062611;28;20213;-82
2022/09/05 00:40:21;;;;;;;11.93;9.30;;;;;;;18.70;100.00;95267.75;5065391;28;20197;-83
2022/09/05 00:42:52;;;;;;;11.93;9.93;;;;;;;18.73;100.00;95287.50;5064363;28;20201;-83
2022/09/05 00:45:30;;;;;;;12.63;10.73;;;;;;;18.73;100.00;95284.88;5065583;28;20213;-83
2022/09/05 00:48:12;;;;;;;13.25;9.80;;;;;;;18.68;100.00;95288.28;5066048;28;20201;-82
2022/09/05 00:51:12;;;;;;;12.52;10.15;;;;;;;18.66;100.00;95293.00;5064032;28;20304;-82
2022/09/05 00:53:48;;;;;;;12.70;10.68;;;;;;;18.64;100.00;95289.03;5065620;28;20201;-83
2022/09/05 00:56:57;;;;;;;15.20;11.07;;;;;;;18.59;100.00;95279.25;5063204;28;20204;-82
2022/09/05 00:59:51;;;;;;;15.32;11.18;;;;;;;18.63;100.00;95285.63;5036203;28;20228;-82
2022/09/05 01:02:29;;;;;;;13.20;11.25;;;;;;;18.67;100.00;95285.91;5065438;28;20338;-83
2022/09/05 01:05:02;;;;;;;12.82;11.10;;;;;;;18.72;100.00;95287.78;5063453;28;20189;-83
2022/09/05 01:07:43;;;;;;;11.85;10.20;;;;;;;18.83;100.00;95294.69;5063992;28;20239;-82
2022/09/05 01:10:19;;;;;;;16.00;11.00;;;;;;;18.87;100.00;95290.53;5063909;28;20225;-82
2022/09/05 01:13:16;;;;;;;17.10;10.67;;;;;;;18.84;100.00;95291.03;5064402;28;20208;-82
2022/09/05 01:15:52;;;;;;;14.27;10.43;;;;;;;18.69;100.00;95274.06;5053145;28;20244;-82
2022/09/05 01:18:39;;;;;;;12.18;9.98;;;;;;;18.76;100.00;95287.00;5066056;28;20680;-84
2022/09/05 01:21:32;;;;;;;17.23;10.30;;;;;;;18.69;100.00;95291.72;5065079;28;20209;-82
2022/09/05 01:24:20;;;;;;;12.65;9.82;;;;;;;18.67;100.00;95293.81;5063224;28;20213;-81
2022/09/05 01:27:20;;;;;;;13.13;9.77;;;;;;;18.61;100.00;95292.94;5066581;28;20212;-80
2022/09/05 01:29:57;;;;;;;10.87;9.67;;;;;;;18.63;100.00;95287.44;5054843;28;20225;-81
2022/09/05 01:32:32;;;;;;;11.48;10.25;;;;;;;18.61;100.00;95276.38;5066480;28;20227;-80
2022/09/05 01:35:19;;;;;;;10.90;9.75;;;;;;;18.62;100.00;95280.59;5067866;28;20204;-81
2022/09/05 01:37:50;;;;;;;14.17;10.53;;;;;;;18.60;100.00;95285.31;5067619;28;20224;-81
2022/09/05 01:40:24;;;;;;;15.80;10.52;;;;;;;18.61;100.00;95276.38;5067968;28;20204;-81
2022/09/05 01:43:11;;;;;;;13.60;10.30;;;;;;;18.55;100.00;95280.03;5066528;28;20229;-80
2022/09/05 01:45:50;;;;;;;12.40;9.85;;;;;;;18.50;100.00;95278.13;5067813;28;20213;-82
2022/09/05 01:48:30;;;;;;;11.93;10.00;;;;;;;18.51;100.00;95276.28;5069130;28;20204;-82
2022/09/05 01:51:13;;;;;;;12.30;10.45;;;;;;;18.47;100.00;95280.47;5070028;28;20237;-83
2022/09/05 01:53:46;;;;;;;10.23;9.13;;;;;;;18.38;100.00;95269.59;5067240;28;20262;-80
2022/09/05 01:56:34;;;;;;;11.10;9.53;;;;;;;18.33;100.00;95268.72;5067685;28;20209;-81
2022/09/05 01:59:29;;;;;;;13.07;9.30;;;;;;;18.41;100.00;95286.72;5066203;28;20288;-81
2022/09/05 02:02:18;;;;;;;10.77;9.15;;;;;;;18.38;100.00;95281.97;5065068;28;20209;-81
2022/09/05 02:05:09;;;;;;;10.45;9.30;;;;;;;18.43;100.00;95282.78;5065953;28;20212;-81
2022/09/05 02:07:55;;;;;;;10.53;8.90;;;;;;;18.35;100.00;95264.84;5067041;28;20201;-83
2022/09/05 02:10:40;;;;;;;10.50;9.13;;;;;;;18.36;100.00;95282.19;5068998;28;20225;-83
2022/09/05 02:13:19;;;;;;;14.33;9.97;;;;;;;18.42;100.00;95281.19;5068218;28;20197;-83
2022/09/05 02:15:50;;;;;;;10.55;9.45;;;;;;;18.44;100.00;95280.97;5068409;28;20237;-83
2022/09/05 02:18:23;;;;;;;10.27;9.15;;;;;;;18.43;100.00;95282.00;5069011;28;20695;-83
2022/09/05 02:20:57;;;;;;;10.02;8.95;;;;;;;18.38;100.00;95277.50;5069707;28;20207;-83
2022/09/05 02:23:35;;;;;;;10.27;9.10;;;;;;;18.42;100.00;95281.19;5066584;28;20297;-82
2022/09/05 02:26:07;;;;;;;12.50;9.27;;;;;;;18.46;100.00;95278.88;5068613;28;20208;-83
2022/09/05 02:28:44;;;;;;;10.27;8.95;;;;;;;18.44;100.00;95280.97;5068653;28;20202;-83
2022/09/05 02:31:16;;;;;;;13.00;9.10;;;;;;;18.38;100.00;95271.44;5067765;28;20224;-82
2022/09/05 02:33:54;;;;;;;10.40;9.30;;;;;;;18.38;100.00;95284.59;5068519;28;20971;-83
2022/09/05 02:36:28;;;;;;;10.57;8.87;;;;;;;18.32;100.00;95289.03;5069821;28;20193;-83
2022/09/05 02:39:00;;;;;;;11.37;8.77;;;;;;;18.34;100.00;95286.91;5069719;28;20197;-83
2022/09/05 02:41:34;;;;;;;11.50;8.80;;;;;;;18.28;100.00;95290.56;5067907;28;20598;-83
2022/09/05 02:44:07;;;;;;;9.55;8.55;;;;;;;18.28;100.00;95282.66;5061977;28;21104;-77
2022/09/05 02:46:45;;;;;;;9.30;8.30;;;;;;;18.30;100.00;95285.03;5065418;28;20193;-77
2022/09/05 02:49:20;;;;;;;10.33;8.50;;;;;;;18.22;100.00;95278.38;5065285;28;20225;-77
2022/09/05 02:51:54;;;;;;;9.83;8.33;;;;;;;18.30;100.00;95292.91;5064923;28;20197;-76
2022/09/05 02:54:28;;;;;;;9.80;8.37;;;;;;;18.29;100.00;95297.41;5063799;28;20232;-77
2022/09/05 02:57:27;;;;;;;9.43;7.57;;;;;;;18.17;100.00;95295.97;5064192;28;20214;-77
2022/09/05 03:00:05;;;;;;;8.23;7.23;;;;;;;18.14;100.00;95299.91;5064479;28;20193;-76
2022/09/05 03:02:47;;;;;;;10.23;7.83;;;;;;;18.10;100.00;95301.41;5063864;28;20201;-76
2022/09/05 03:05:22;;;;;;;8.27;7.40;;;;;;;18.18;100.00;95294.94;5063583;28;20197;-77
2022/09/05 03:08:07;;;;;;;8.80;6.97;;;;;;;18.18;100.00;95302.84;5063331;28;20213;-78
2022/09/05 03:10:59;;;;;;;7.77;6.97;;;;;;;18.20;100.00;95304.16;5065099;28;20692;-77
2022/09/05 03:13:59;;;;;;;13.43;7.33;;;;;;;18.18;100.00;95305.47;5065159;28;20212;-77
2022/09/05 03:17:03;;;;;;;9.20;6.70;;;;;;;18.23;100.00;95306.31;5064732;28;20233;-77
2022/09/05 03:20:15;;;;;;;8.67;6.43;;;;;;;18.22;100.00;95303.91;5064618;28;20274;-77
2022/09/05 03:23:17;;;;;;;6.37;5.63;;;;;;;18.22;100.00;95309.16;5043787;28;20210;-78
2022/09/05 03:26:21;;;;;;;12.23;6.13;;;;;;;18.20;100.00;95312.06;5037072;28;20209;-76
2022/09/05 03:29:31;;;;;;;8.23;5.78;;;;;;;18.20;100.00;95312.06;5064662;28;20208;-77
2022/09/05 03:32:47;;;;;;;6.95;5.93;;;;;;;18.21;100.00;95316.25;5064468;28;20640;-76
2022/09/05 03:36:13;;;;;;;7.47;5.60;;;;;;;18.17;100.00;95315.19;5062844;28;20328;-77
2022/09/05 03:39:35;;;;;;;9.38;5.60;;;;;;;18.18;100.00;95318.63;5062765;28;20205;-77
2022/09/05 03:42:33;;;;;;;11.57;6.07;;;;;;;18.17;100.00;95312.56;5046806;28;20197;-77
2022/09/05 03:45:28;;;;;;;11.07;6.05;;;;;;;18.17;100.00;95325.72;5022408;28;20585;-78
2022/09/05 03:48:16;;;;;;;7.03;5.43;;;;;;;18.18;100.00;95329.94;5064324;28;20190;-78
2022/09/05 03:50:55;;;;;;;6.33;5.67;;;;;;;18.17;100.00;95332.81;5063294;28;20352;-76
2022/09/05 03:53:46;;;;;;;7.05;5.80;;;;;;;18.16;100.00;95337.28;5064332;28;20216;-76
2022/09/05 03:56:47;;;;;;;8.00;5.80;;;;;;;18.15;100.00;95333.84;5064454;28;20288;-74
2022/09/05 03:59:41;;;;;;;8.47;5.83;;;;;;;18.14;100.00;95329.63;5062072;28;20209;-76
2022/09/05 04:02:12;;;;;;;8.00;5.77;;;;;;;18.14;100.00;95342.78;5062141;28;20205;-77
2022/09/05 04:04:44;;;;;;;7.43;6.00;;;;;;;18.16;100.00;95342.53;5063536;28;20208;-77
2022/09/05 04:07:20;;;;;;;8.65;6.43;;;;;;;18.23;100.00;95347.59;5062971;28;20216;-76
2022/09/05 04:09:52;;;;;;;10.23;6.37;;;;;;;18.18;100.00;95351.00;5063640;28;20236;-72
2022/09/05 04:12:25;;;;;;;7.88;6.28;;;;;;;18.16;100.00;95355.69;5063035;28;20205;-73
2022/09/05 04:14:56;;;;;;;7.93;6.77;;;;;;;18.11;100.00;95353.81;5063519;28;20930;-73
2022/09/05 04:17:32;;;;;;;8.47;6.27;;;;;;;18.07;100.00;95357.97;5064094;28;20194;-74
2022/09/05 04:20:07;;;;;;;11.30;6.67;;;;;;;18.06;100.00;95351.13;5063050;28;20584;-74
2022/09/05 04:22:56;;;;;;;11.87;7.10;;;;;;;18.07;100.00;95362.44;5061777;28;20307;-74
2022/09/05 04:25:34;;;;;;;8.90;6.80;;;;;;;17.91;100.00;95363.31;5062377;28;20206;-73
2022/09/05 04:28:14;;;;;;;10.83;6.70;;;;;;;17.83;100.00;95367.19;5062269;28;20197;-73
2022/09/05 04:30:47;;;;;;;10.07;6.60;;;;;;;17.93;100.00;95372.53;5062874;28;20217;-74
2022/09/05 04:33:23;;;;;;;9.63;6.63;;;;;;;17.89;100.00;95374.06;5020061;28;20201;-72
2022/09/05 04:35:58;;;;;;;12.47;7.70;;;;;;;17.85;100.00;95380.06;5060682;28;20204;-73
2022/09/05 04:38:40;;;;;;;16.87;7.90;;;;;;;17.87;100.00;95383.25;5060299;28;20290;-73
2022/09/05 04:41:11;;;;;;;12.73;7.63;;;;;;;17.92;100.00;95394.63;5058614;28;20687;-73
2022/09/05 04:43:44;;;;;;;12.93;7.30;;;;;;;18.02;100.00;95391.31;5060437;28;20205;-73
2022/09/05 04:46:21;;;;;;;11.23;7.70;;;;;;;18.03;100.00;95391.09;5061006;28;20632;-73
2022/09/05 04:49:00;;;;;;;13.77;7.33;;;;;;;17.88;100.00;95400.63;5061142;28;20586;-73
2022/09/05 04:52:02;;;;;;;11.63;7.47;;;;;;;17.84;100.00;95405.56;5059530;28;20224;-73
2022/09/05 04:54:34;;;;;;;11.73;7.20;;;;;;;17.94;100.00;95400.44;5060876;28;20207;-73
2022/09/05 04:57:12;;;;;;;9.63;7.47;;;;;;;17.84;100.00;95400.31;5059264;28;20585;-74
2022/09/05 04:59:47;;;;;;;13.07;8.10;;;;;;;17.92;100.00;95405.13;5059171;28;20197;-74
2022/09/05 05:02:21;;;;;;;13.17;8.03;;;;;;;18.01;100.00;95405.50;5059221;28;21272;-74
2022/09/05 05:04:50;;;;;;;14.80;8.25;;;;;;;18.06;100.00;95397.69;5061311;28;20216;-77
2022/09/05 05:07:22;;;;;;;11.03;7.73;;;;;;;18.17;100.00;95414.38;5061596;28;20209;-73
2022/09/05 05:09:53;;;;;;;14.55;9.32;;;;;;;18.13;100.00;95417.50;5061418;28;20211;-73
2022/09/05 05:12:27;;;;;;;13.43;8.10;;;;;;;18.13;100.00;95421.97;5061823;28;20677;-73
2022/09/05 05:15:00;;;;;;;11.80;8.10;;;;;;;18.23;100.00;95416.03;5058319;28;20292;-72
2022/09/05 05:17:35;;;;;;;13.63;8.37;;;;;;;18.31;100.00;95421.66;5059976;28;20203;-72
2022/09/05 05:20:14;;;;;;;14.47;8.40;;;;;;;18.31;100.00;95419.03;5059940;28;20200;-73
2022/09/05 05:22:49;;;;;;;12.17;8.40;;;;;;;18.35;100.00;95424.59;5055034;28;20616;-73
2022/09/05 05:25:16;;;;;;;10.95;8.48;;;;;;;18.39;100.00;95434.38;5061299;28;20314;-74
2022/09/05 05:27:52;;;;;;;10.07;8.47;;;;;;;18.42;100.00;95439.16;5061354;28;20216;-73
2022/09/05 05:30:25;;;;;;;11.05;8.80;;;;;;;18.48;100.00;95440.00;5060148;28;20762;-74
2022/09/05 05:32:55;;;;;;;9.23;8.27;;;;;;;18.54;100.00;95434.56;5060822;28;20224;-72
2022/09/05 05:35:28;;;;;;;12.35;8.38;;;;;;;18.63;100.00;95437.56;5061230;28;20209;-73
2022/09/05 05:37:59;;;;;;;13.63;8.32;;;;;;;18.61;100.00;95432.50;5060737;28;20213;-73
2022/09/05 05:40:29;;;;;;;11.60;8.20;;;;;;;18.64;100.00;95442.56;5051814;28;20629;-73
2022/09/05 05:43:14;;;;;;;10.10;8.50;;;;;;;18.65;100.00;95444.16;5062019;28;20280;-73
2022/09/05 05:45:41;;;;;;;31.38;16.98;;;;;;;18.62;100.00;95441.22;5061061;28;20213;-79
2022/09/05 05:48:26;;;;;;;14.48;9.25;;;;;;;18.51;100.00;95439.53;5061676;28;20231;-72
2022/09/05 05:51:16;;;;;;;11.77;8.35;;;;;;;18.57;100.00;95441.97;5062453;28;20221;-73
2022/09/05 05:53:53;;;;;;;13.50;9.00;;;;;;;18.63;100.00;95450.72;5046291;28;20270;-74
2022/09/05 05:56:38;;;;;;;10.30;7.60;;;;;;;18.56;100.00;95453.53;5062466;28;20200;-73
2022/09/05 05:59:23;;;;;;;13.00;7.78;;;;;;;18.39;100.00;95444.91;5060701;28;20208;-73
2022/09/05 06:02:35;;;;;;;12.80;7.50;;;;;;;18.50;100.00;95453.72;5062590;28;20259;-73
2022/09/05 06:05:28;;;;;;;9.43;6.93;;;;;;;18.60;100.00;95456.47;5020664;28;20199;-73
2022/09/05 06:08:14;;;;;;;13.13;8.20;;;;;;;18.58;100.00;95448.03;5062130;28;20664;-73
2022/09/05 06:11:00;;;;;;;10.85;7.65;;;;;;;18.57;100.00;95446.44;5061951;28;20276;-73
2022/09/05 06:14:15;;;;;;;11.30;7.67;;;;;;;18.54;100.00;95453.00;5061998;28;20193;-74
2022/09/05 06:17:01;;;;;;;9.88;7.13;;;;;;;18.65;100.00;95451.25;5017706;28;20229;-73
2022/09/05 06:20:06;;;;;;;14.75;7.38;;;;;;;18.77;100.00;95449.28;5062528;28;20201;-73
2022/09/05 06:23:24;;;;;;;9.98;7.50;;;;;;;18.89;100.00;95449.13;5054326;28;20213;-73
2022/09/05 06:26:11;;;;;;;9.05;7.63;;;;;;;18.95;99.74;95454.19;5018227;28;20211;-73
2022/09/05 06:28:52;;;;;;;9.32;7.30;;;;;;;18.97;99.27;95456.56;5063615;28;20210;-73
2022/09/05 06:31:34;;;;;;;10.88;7.28;;;;;;;19.04;98.38;95467.72;5064053;28;20229;-73
2022/09/05 06:34:20;;;;;;;10.00;7.10;;;;;;;18.96;98.82;95476.84;5062921;28;20217;-73
2022/09/05 06:36:56;;;;;;;13.93;6.95;;;;;;;18.91;99.33;95471.53;5065384;28;20216;-75
2022/09/05 06:39:41;;;;;;;9.15;6.95;;;;;;;18.97;99.48;95469.75;5066055;28;20678;-77
2022/09/05 06:42:22;;;;;;;14.00;6.78;;;;;;;18.98;100.00;95463.44;5063664;28;20814;-73
2022/09/05 06:45:07;;;;;;;6.55;5.95;;;;;;;19.18;99.19;95472.31;5064884;28;20205;-74
2022/09/05 06:47:38;;;;;;;9.32;6.32;;;;;;;19.22;96.73;95473.38;5065099;28;20202;-73
2022/09/05 06:50:12;;;;;;;6.70;5.75;;;;;;;19.19;95.58;95487.06;5064770;28;20205;-74
2022/09/05 06:53:19;;;;;;;7.65;6.18;;;;;;;19.05;95.22;95479.81;5064196;28;20577;-74
2022/09/05 06:56:05;;;;;;;6.55;5.53;;;;;;;19.08;95.80;95479.31;5064429;28;20765;-74
2022/09/05 06:59:05;;;;;;;9.27;5.82;;;;;;;19.17;94.97;95480.47;5062071;28;20277;-73
2022/09/05 07:01:47;;;;;;;7.13;5.43;;;;;;;19.16;93.12;95471.75;5062553;28;20733;-73
2022/09/05 07:04:32;;;;;;;6.70;5.10;;;;;;;19.33;92.84;95474.28;5062746;28;20209;-74
2022/09/05 07:07:10;;;;;;;9.63;5.35;;;;;;;19.35;92.66;95477.47;5062269;28;20692;-74
2022/09/05 07:09:52;;;;;;;6.45;5.32;;;;;;;19.48;93.20;95479.69;5062635;28;20208;-76
2022/09/05 07:12:25;;;;;;;7.72;5.35;;;;;;;19.44;93.08;95470.72;5063460;28;20232;-73
2022/09/05 07:15:00;;;;;;;8.88;5.10;;;;;;;19.50;92.29;95471.53;5064601;28;20550;-74
2022/09/05 07:17:39;;;;;;;9.15;5.03;;;;;;;19.49;93.19;95477.84;5064350;28;20610;-74
2022/09/05 07:20:16;;;;;;;7.65;4.68;;;;;;;19.32;91.40;95477.97;5064298;28;20205;-74
2022/09/05 07:22:53;;;;;;;5.28;4.38;;;;;;;19.23;89.57;95467.09;5064306;28;21546;-73
2022/09/05 07:25:25;;;;;;;7.85;4.40;;;;;;;19.18;89.74;95467.03;5061247;28;20968;-74
2022/09/05 07:27:57;;;;;;;7.03;4.32;;;;;;;19.20;90.13;95467.59;5064486;28;20201;-75
2022/09/05 07:30:25;;;;;;;5.55;4.88;;;;;;;19.16;91.94;95460.44;5061126;28;20197;-75
2022/09/05 07:32:55;;;;;;;7.45;5.32;;;;;;;19.25;91.22;95461.53;5064358;28;20197;-76
2022/09/05 07:35:26;;;;;;;8.25;5.22;;;;;;;19.30;91.09;95466.06;5064060;28;20201;-76
2022/09/05 07:38:02;;;;;;;8.80;4.78;;;;;;;19.33;91.97;95468.22;5062837;28;20205;-75
2022/09/05 07:40:33;;;;;;;6.97;4.70;;;;;;;19.27;90.89;95468.19;5062670;28;20193;-75
2022/09/05 07:43:06;;;;;;;9.55;5.10;;;;;;;19.30;91.37;95463.44;5064125;28;20201;-75
2022/09/05 07:45:37;;;;;;;7.80;4.97;;;;;;;19.27;90.40;95462.91;5064558;28;20726;-74
2022/09/05 07:48:11;;;;;;;7.00;5.40;;;;;;;19.38;89.76;95469.03;5064776;28;20660;-74
2022/09/05 07:50:48;;;;;;;4.90;4.38;;;;;;;19.39;90.10;95468.03;5064303;28;20201;-79
2022/09/05 07:53:17;;;;;;;5.93;4.50;;;;;;;19.50;89.23;95463.63;5063046;28;20205;-73
2022/09/05 07:55:47;;;;;;;6.88;5.25;;;;;;;19.65;88.22;95461.88;5062237;28;20220;-73
2022/09/05 07:58:18;;;;;;;5.68;4.32;;;;;;;19.58;88.33;95463.94;5063483;28;21059;-75
2022/09/05 08:00:51;;;;;;;6.57;4.50;;;;;;;19.68;86.71;95468.50;5063816;28;20216;-74
2022/09/05 08:03:26;;;;;;;7.75;4.38;;;;;;;19.67;86.34;95477.44;5063300;28;20213;-74
2022/09/05 08:05:56;;;;;;;5.20;4.57;;;;;;;19.69;86.21;95481.41;5062402;28;20304;-79
2022/09/05 08:08:28;;;;;;;6.05;4.97;;;;;;;19.80;87.19;95469.88;5063658;28;20692;-77
2022/09/05 08:10:57;;;;;;;4.93;4.28;;;;;;;20.01;86.42;95478.72;5062309;28;20225;-76
2022/09/05 08:13:29;;;;;;;7.70;4.75;;;;;;;20.06;85.61;95476.09;5063350;28;20205;-76
2022/09/05 08:15:59;;;;;;;6.90;4.90;;;;;;;20.09;83.69;95469.50;5064390;28;20724;-77
2022/09/05 08:18:38;;;;;;;5.95;4.70;;;;;;;20.20;84.43;95468.53;5063063;28;20220;-74
2022/09/05 08:21:10;;;;;;;5.55;3.95;;;;;;;20.58;93.04;95483.19;5059721;28;20252;-74
2022/09/05 08:23:48;;;;;;;8.68;4.60;;;;;;;20.94;86.38;95476.97;5059846;28;20280;-73
2022/09/05 08:26:22;;;;;;;11.32;4.05;;;;;;;21.23;94.36;95470.16;5060341;28;20216;-74
2022/09/05 08:28:59;;;;;;;7.10;3.92;;;;;;;21.70;88.96;95475.13;5063169;28;20205;-73
2022/09/05 08:31:36;;;;;;;5.30;4.18;;;;;;;21.82;81.70;95477.50;5062817;28;20224;-73
2022/09/05 08:34:10;;;;;;;9.40;4.40;;;;;;;22.11;81.83;95481.16;5061112;28;20209;-73
2022/09/05 08:36:42;;;;;;;5.82;4.05;;;;;;;22.25;83.09;95479.53;5059595;28;20205;-74
2022/09/05 08:39:11;;;;;;;9.75;4.28;;;;;;;22.24;76.29;95470.00;5061132;28;20213;-74
2022/09/05 08:41:52;;;;;;;4.78;3.80;;;;;;;22.27;75.25;95481.91;5063534;28;20209;-74
2022/09/05 08:44:23;;;;;;;17.73;4.10;;;;;;;22.27;74.65;95474.78;5063006;28;20208;-73
2022/09/05 08:46:53;;;;;;;5.90;3.67;;;;;;;22.17;78.07;95474.00;5062960;28;20201;-73
2022/09/05 08:49:39;;;;;;;4.32;3.53;;;;;;;22.22;80.71;95472.13;5062431;28;20202;-73
2022/09/05 08:52:11;;;;;;;5.35;3.88;;;;;;;22.47;79.68;95480.00;5061441;28;20925;-75
2022/09/05 08:54:53;;;;;;;4.38;3.63;;;;;;;22.59;75.44;95474.38;5062357;28;20212;-75
2022/09/05 08:57:43;;;;;;;6.07;3.40;;;;;;;22.69;75.18;95479.63;5062856;28;20201;-73
2022/09/05 09:00:11;;;;;;;4.78;3.97;;;;;;;22.80;73.46;95481.16;5062923;28;20208;-74
2022/09/05 09:02:58;;;;;;;7.18;3.83;;;;;;;22.99;75.01;95476.81;5061751;28;20193;-73
2022/09/05 09:05:50;;;;;;;4.18;3.58;;;;;;;22.95;70.07;95481.09;5063226;28;20208;-75
2022/09/05 09:08:28;;;;;;;4.38;3.53;;;;;;;23.06;72.85;95487.09;5062789;28;20205;-78
2022/09/05 09:10:58;;;;;;;4.70;3.90;;;;;;;23.20;71.21;95480.13;5063794;28;20204;-79
2022/09/05 09:13:36;;;;;;;3.50;3.20;;;;;;;23.28;73.21;95476.09;5062988;28;20625;-78
2022/09/05 09:16:09;;;;;;;6.07;3.70;;;;;;;23.20;70.96;95479.34;5061843;28;20320;-80
2022/09/05 09:19:01;;;;;;;5.32;3.60;;;;;;;23.20;69.74;95479.34;5063484;28;20259;-78
2022/09/05 09:21:39;;;;;;;10.00;3.30;;;;;;;23.31;72.44;95484.28;5057588;28;20202;-74
2022/09/05 09:24:18;;;;;;;3.67;3.30;;;;;;;23.44;71.98;95485.53;5061537;28;20201;-76
2022/09/05 09:26:52;;;;;;;8.15;4.40;;;;;;;23.63;69.47;95481.16;5061569;28;20212;-73
2022/09/05 09:29:19;;;;;;;4.13;3.42;;;;;;;23.83;69.96;95480.16;5061619;28;20718;-74
2022/09/05 09:32:01;;;;;;;4.07;3.63;;;;;;;24.10;67.49;95483.88;5061571;28;20229;-74
2022/09/05 09:34:53;;;;;;;3.50;3.20;;;;;;;24.40;66.79;95488.06;5062060;28;20209;-73
2022/09/05 09:38:08;;;;;;;3.55;3.20;;;;;;;24.60;64.37;95492.34;5062520;28;20204;-73
2022/09/05 09:41:08;;;;;;;5.78;3.58;;;;;;;24.73;64.53;95487.13;5061616;28;20205;-74
2022/09/05 09:44:02;;;;;;;4.15;3.40;;;;;;;24.91;64.21;95482.13;5057818;28;20366;-72
2022/09/05 09:46:39;;;;;;;3.72;3.20;;;;;;;25.07;63.16;95473.66;5060946;28;20208;-73
2022/09/05 09:49:36;;;;;;;3.83;3.38;;;;;;;25.15;61.74;95475.66;5065964;28;20587;-72
2022/09/05 09:52:40;;;;;;;3.42;3.05;;;;;;;25.42;61.78;95461.69;5065727;28;20274;-74
2022/09/05 09:55:54;;;;;;;3.90;3.35;;;;;;;25.66;62.93;95465.03;5065297;28;20270;-73
2022/09/05 09:58:38;;;;;;;5.32;3.15;;;;;;;26.01;61.61;95454.81;5066463;28;20304;-73
2022/09/05 10:01:20;;;;;;;4.65;3.05;;;;;;;26.38;59.63;95447.44;5064718;28;20215;-74
2022/09/05 10:04:07;;;;;;;4.18;2.90;;;;;;;26.52;57.35;95447.44;5063991;28;20198;-74
2022/09/05 10:06:54;;;;;;;3.58;3.03;;;;;;;26.54;59.23;95452.47;5065165;28;20668;-74
2022/09/05 10:09:32;;;;;;;3.50;2.95;;;;;;;26.86;58.00;95452.34;5067352;28;20826;-73
2022/09/05 10:12:46;;;;;;;3.35;3.03;;;;;;;26.95;56.11;95450.53;5066279;28;20213;-75
2022/09/05 10:15:25;;;;;;;3.67;3.30;;;;;;;27.07;54.24;95445.44;5065319;28;20252;-73
2022/09/05 10:18:17;;;;;;;11.82;3.47;;;;;;;27.10;55.44;95441.41;5065833;28;20307;-73
2022/09/05 10:21:06;;;;;;;3.78;3.03;;;;;;;27.13;53.25;95444.22;5065094;28;20227;-74
2022/09/05 10:23:46;;;;;;;4.85;3.10;;;;;;;27.31;54.03;95439.81;5064328;28;20204;-72
2022/09/05 10:26:53;;;;;;;3.30;3.00;;;;;;;27.51;55.00;95428.66;5065972;28;21023;-73
2022/09/05 10:29:42;;;;;;;3.30;3.00;;;;;;;27.67;55.80;95424.53;5064535;28;20209;-73
2022/09/05 10:32:13;;;;;;;4.80;3.00;;;;;;;27.67;53.84;95435.22;5064947;28;20229;-74
2022/09/05 10:34:46;;;;;;;5.30;3.45;;;;;;;27.53;55.01;95429.16;5065831;28;20205;-74
2022/09/05 10:37:15;;;;;;;3.13;2.83;;;;;;;27.50;56.41;95424.44;5064159;28;20214;-74
2022/09/05 10:39:45;;;;;;;3.42;2.80;;;;;;;27.73;54.89;95422.50;5064940;28;20213;-73
2022/09/05 10:42:17;;;;;;;3.80;3.40;;;;;;;27.71;54.13;95422.81;5065297;28;20207;-73
2022/09/05 10:44:52;;;;;;;3.10;2.80;;;;;;;27.37;55.14;95420.69;5063436;28;20216;-72
2022/09/05 10:47:34;;;;;;;3.63;3.10;;;;;;;27.14;55.62;95402.31;5065935;28;20212;-72
2022/09/05 10:50:10;;;;;;;8.25;3.85;;;;;;;27.20;55.77;95417.13;5062335;28;20288;-73
2022/09/05 10:52:56;;;;;;;3.85;3.13;;;;;;;26.88;56.08;95421.59;5064440;28;20213;-73
2022/09/05 10:55:27;;;;;;;4.38;3.30;;;;;;;26.88;56.16;95431.47;5063455;28;20213;-75
2022/09/05 10:58:05;;;;;;;3.30;3.00;;;;;;;27.39;55.18;95420.38;5062995;28;20220;-73
2022/09/05 11:00:55;;;;;;;3.50;3.20;;;;;;;27.57;54.92;95416.75;5062178;28;20710;-73
2022/09/05 11:03:28;;;;;;;3.88;3.20;;;;;;;27.74;54.79;95422.19;5063742;28;20229;-73
2022/09/05 11:05:58;;;;;;;4.00;3.30;;;;;;;28.09;53.89;95420.50;5061105;28;20204;-73
2022/09/05 11:08:34;;;;;;;3.70;3.35;;;;;;;28.23;53.62;95421.16;5064286;28;20217;-74
2022/09/05 11:11:14;;;;;;;3.25;2.95;;;;;;;28.38;53.27;95407.38;5064355;28;20240;-74
2022/09/05 11:13:45;;;;;;;3.42;3.03;;;;;;;28.72;52.58;95412.00;5064878;28;20236;-73
2022/09/05 11:16:37;;;;;;;3.50;2.95;;;;;;;28.77;52.04;95414.56;5065364;28;20324;-73
2022/09/05 11:19:07;;;;;;;5.30;3.20;;;;;;;28.97;51.66;95405.09;5062949;28;20201;-74
2022/09/05 11:21:53;;;;;;;4.82;3.35;;;;;;;29.51;48.91;95409.78;5064844;28;20209;-73
2022/09/05 11:24:31;;;;;;;3.05;2.80;;;;;;;29.51;46.98;95404.44;5064679;28;20205;-73
2022/09/05 11:27:01;;;;;;;5.00;2.80;;;;;;;29.80;46.35;95399.19;5064511;28;20216;-73
2022/09/05 11:29:38;;;;;;;3.03;2.72;;;;;;;29.93;45.21;95401.97;5065061;28;20272;-75
2022/09/05 11:32:47;;;;;;;3.30;3.00;;;;;;;29.67;45.88;95400.13;5064379;28;20229;-73
2022/09/05 11:35:20;;;;;;;3.50;2.95;;;;;;;29.36;44.94;95396.91;5054079;28;21043;-74
2022/09/05 11:38:33;;;;;;;5.20;2.95;;;;;;;29.40;46.53;95389.81;5064467;28;20213;-73
2022/09/05 11:41:35;;;;;;;3.65;2.70;;;;;;;29.48;46.46;95388.19;5019187;28;20213;-73
2022/09/05 11:44:18;;;;;;;3.92;3.00;;;;;;;29.07;45.77;95381.47;5061919;28;20251;-84
2022/09/05 11:47:02;;;;;;;3.58;3.08;;;;;;;28.34;47.02;95385.00;5064498;28;20239;-77
2022/09/05 11:49:47;;;;;;;3.65;2.95;;;;;;;27.85;48.68;95388.00;5063723;28;20206;-81
2022/09/05 11:52:41;;;;;;;5.15;3.03;;;;;;;27.77;49.59;95383.38;5063188;28;20236;-77
2022/09/05 11:55:41;;;;;;;7.43;3.25;;;;;;;26.67;49.86;95383.09;5063429;28;20201;-77
2022/09/05 11:58:41;;;;;;;4.85;3.05;;;;;;;26.96;50.47;95374.72;5061620;28;20205;-77
2022/09/05 12:01:15;;;;;;;4.72;2.90;;;;;;;26.61;50.46;95372.84;5063014;28;20201;-77
2022/09/05 12:04:07;;;;;;;3.85;3.30;;;;;;;26.71;50.55;95380.59;5063755;28;20205;-78
2022/09/05 12:07:05;;;;;;;3.35;3.05;;;;;;;26.21;52.17;95380.59;5063514;28;20200;-76
2022/09/05 12:09:51;;;;;;;3.72;3.20;;;;;;;26.77;53.00;95372.19;5059121;28;20224;-77
2022/09/05 12:12:30;;;;;;;9.43;3.40;;;;;;;27.57;49.46;95358.78;5064832;28;20229;-78
2022/09/05 12:15:15;;;;;;;4.13;2.83;;;;;;;28.11;47.17;95362.94;5064190;28;20203;-75
2022/09/05 12:18:01;;;;;;;3.42;3.10;;;;;;;28.40;47.08;95366.94;5062385;28;20218;-76
2022/09/05 12:20:38;;;;;;;3.47;3.03;;;;;;;29.01;44.57;95377.38;5062837;28;20298;-76
2022/09/05 12:23:18;;;;;;;3.25;2.67;;;;;;;29.35;44.17;95375.78;5062946;28;20672;-77
2022/09/05 12:25:56;;;;;;;2.85;2.60;;;;;;;29.70;43.03;95372.69;5062220;28;20232;-76
2022/09/05 12:28:28;;;;;;;3.08;2.78;;;;;;;30.21;43.27;95369.03;5061187;28;20201;-78
2022/09/05 12:31:11;;;;;;;3.03;2.60;;;;;;;30.71;41.43;95368.22;5063291;28;20235;-77